N5JLD-1 Weather Reports


time (UTC)temp
F
wind
direction
speed
knots
gust
knots
rain 1hr
in
rain 24hr
in
rain mn
in
humidity
%
barometer
mb
20190619103516 69 19 0.0 1.7 0.00 0.51 0.51 94 1011.0
20190619102520 69 0.0 0.0 0.00 0.51 0.51 93 1011.0
20190619101517 69 0.0 0.0 0.00 0.51 0.51 92 1010.8
20190619100519 69 0.0 0.0 0.00 0.51 0.51 92 1010.6
20190619095517 69 315 0.0 0.9 0.00 0.51 0.51 92 1010.5
20190619094520 69 0.0 0.0 0.01 0.51 0.51 92 1010.4
20190619093522 70 28 0.0 1.7 0.04 0.51 0.51 91 1010.3
20190619092520 70 202 0.9 2.6 0.04 0.51 0.51 89 1009.4
20190619091523 69 183 1.7 4.3 0.04 0.51 0.51 90 1008.5
20190619090524 69 289 0.9 1.7 0.04 0.51 0.51 91 1008.8
20190619085528 70 356 1.7 2.6 0.09 0.51 0.51 92 1010.7
20190619084530 70 318 0.9 2.6 0.31 0.49 0.49 91 1011.6
20190619083533 70 302 0.0 1.7 0.44 0.46 0.46 91 1012.1
20190619082518 71 0.0 0.0 0.46 0.46 0.46 90 1011.8
20190619081521 71 0.0 0.0 0.46 0.46 0.46 89 1012.9
20190619080523 71 0.0 0.0 0.46 0.46 0.46 89 1013.2
20190619075526 72 270 0.9 2.6 0.41 0.41 0.41 87 1012.3
20190619074522 74 266 1.7 3.5 0.17 0.17 0.17 81 1012.1
20190619073519 79 300 2.6 4.3 0.02 0.02 0.02 68 1012.0
20190619072516 80 263 0.9 1.7 0.00 0.00 0.00 74 1011.8
20190619071531 80 265 1.7 3.5 0.00 0.00 0.00 74 1010.5
20190619070528 81 226 0.9 2.6 0.00 0.00 0.00 73 1009.6
20190619065531 81 190 3.5 4.3 0.00 0.00 0.00 73 1009.7
20190619064515 81 200 2.6 6.1 0.00 0.00 0.00 73 1009.7
20190619063531 81 177 2.6 5.2 0.00 0.00 0.00 73 1009.7
20190619062516 81 179 2.6 5.2 0.00 0.00 0.00 73 1009.7
20190619061518 81 187 2.6 4.3 0.00 0.00 0.00 73 1010.0
20190619060520 81 162 2.6 5.2 0.00 0.00 0.00 73 1010.3
20190619055523 81 171 1.7 3.5 0.00 0.00 0.00 72 1010.5
20190619054521 81 177 1.7 3.5 0.00 0.00 0.00 72 1010.6
20190619053523 82 205 2.6 6.1 0.00 0.00 0.00 71 1011.0
20190619052526 82 187 2.6 4.3 0.00 0.00 0.00 70 1011.5
20190619051528 82 182 2.6 3.5 0.00 0.00 0.00 69 1012.0
20190619050531 82 193 0.9 3.5 0.00 0.00 0.00 68 1012.0
20190619045527 82 170 1.7 2.6 0.00 0.00 0.00 68 1012.0
20190619044517 82 161 1.7 3.5 0.00 0.00 0.00 68 1011.9
20190619043520 82 196 1.7 2.6 0.00 0.00 0.00 68 1011.8
20190619042516 82 209 0.9 3.5 0.00 0.00 0.00 67 1011.8
20190619041524 82 202 1.7 4.3 0.00 0.00 0.00 67 1011.3
20190619040522 82 189 1.7 2.6 0.00 0.00 0.00 67 1011.0
20190619035520 82 180 1.7 3.5 0.00 0.00 0.00 67 1011.0
20190619034522 82 143 2.6 3.5 0.00 0.00 0.00 67 1010.9
20190619033524 83 157 3.5 5.2 0.00 0.00 0.00 66 1010.8
20190619032528 83 209 2.6 3.5 0.00 0.00 0.00 65 1010.8
20190619031530 83 180 2.6 3.5 0.00 0.00 0.00 65 1010.6
20190619030533 83 213 2.6 4.3 0.00 0.00 0.00 65 1010.5
20190619025530 83 176 1.7 3.5 0.00 0.00 0.00 64 1010.1
20190619024533 84 160 2.6 3.5 0.00 0.00 0.00 64 1010.1
20190619023516 84 184 2.6 3.5 0.00 0.00 0.00 64 1010.1
20190619022532 84 114 1.7 4.3 0.00 0.00 0.00 65 1009.9
20190619021517 84 189 1.7 4.3 0.00 0.00 0.00 65 1010.0
20190619020532 84 219 1.7 3.5 0.00 0.00 0.00 65 1010.1
20190619015516 85 214 1.7 4.3 0.00 0.00 0.00 64 1010.1
20190619014526 85 208 2.6 4.3 0.00 0.00 0.00 63 1010.1
20190619013516 86 176 2.6 5.2 0.00 0.00 0.00 62 1010.0
20190619012519 86 170 1.7 2.6 0.00 0.00 0.00 61 1009.9
20190619011518 87 207 1.7 3.5 0.00 0.00 0.00 60 1009.8
20190619010531 87 190 0.9 4.3 0.00 0.00 0.00 59 1009.6
20190619005528 88 162 1.7 3.5 0.00 0.00 0.00 58 1009.9
20190619004531 88 173 1.7 3.5 0.00 0.00 0.00 57 1010.0
20190619003515 89 136 2.6 5.2 0.00 0.00 0.00 57 1010.0
20190619002518 89 161 1.7 2.6 0.00 0.00 0.00 57 1010.0
20190619001520 89 100 0.9 2.6 0.00 0.00 0.00 58 1010.0
20190619000517 90 92 1.7 3.5 0.00 0.00 0.00 58 1010.3
20190618235521 90 0.0 0.0 0.00 0.00 0.00 58 1010.3
20190618234522 90 175 0.0 2.6 0.00 0.00 0.00 57 1010.4
20190618233526 90 138 1.7 2.6 0.00 0.00 0.00 56 1010.5
20190618232523 90 79 0.9 2.6 0.00 0.00 0.00 56 1010.5
20190618231521 91 46 0.9 2.6 0.00 0.00 0.00 55 1010.8
20190618230523 91 74 1.7 2.6 0.00 0.00 0.00 55 1010.8
20190618225526 91 107 1.7 2.6 0.00 0.00 0.00 55 1011.0
20190618224529 92 67 2.6 4.3 0.00 0.00 0.00 55 1011.0
20190618223525 92 358 0.9 1.7 0.00 0.00 0.00 53 1011.1
20190618222521 93 35 0.9 1.7 0.00 0.00 0.00 53 1011.3
20190618221518 93 180 0.0 1.7 0.00 0.00 0.00 52 1011.5
20190618220520 92 0.0 0.0 0.00 0.00 0.00 54 1011.7
20190618215522 93 15 0.0 1.7 0.00 0.00 0.00 54 1011.8
20190618214526 92 307 0.0 0.9 0.00 0.00 0.00 53 1011.9
20190618213528 92 311 0.0 0.9 0.00 0.00 0.00 54 1012.1
20190618212526 92 110 0.9 2.6 0.00 0.00 0.00 54 1012.3
20190618211523 92 157 0.0 0.9 0.00 0.00 0.00 54 1012.4
20190618210520 92 253 0.0 0.9 0.00 0.00 0.00 54 1012.6
20190618205523 92 168 0.0 0.9 0.00 0.00 0.00 52 1012.8
20190618204525 92 20 0.9 3.5 0.00 0.00 0.00 52 1012.9
20190618203523 93 48 0.9 3.5 0.00 0.00 0.00 50 1013.0
20190618202521 94 90 0.0 1.7 0.00 0.00 0.00 51 1013.1
20190618201523 92 154 0.9 2.6 0.00 0.00 0.00 52 1013.2
20190618200525 92 282 0.0 1.7 0.00 0.00 0.00 51 1013.2
20190618195528 91 0 0.0 0.9 0.00 0.00 0.00 52 1013.3
20190618194530 95 292 0.0 3.5 0.00 0.00 0.00 47 1013.4
20190618193526 95 315 0.0 0.9 0.00 0.00 0.00 46 1013.4
20190618192517 96 39 0.0 1.7 0.00 0.00 0.00 48 1013.4
20190618191520 95 202 0.0 0.9 0.00 0.00 0.00 47 1013.4
20190618190516 92 270 0.0 0.9 0.00 0.00 0.00 50 1013.5
20190618185525 92 283 0.0 0.9 0.00 0.00 0.00 51 1013.6
20190618184527 91 228 0.9 2.6 0.00 0.00 0.00 50 1013.5
20190618183530 91 178 0.0 2.6 0.00 0.00 0.00 50 1013.5
20190618182532 89 225 0.0 0.9 0.00 0.00 0.00 51 1013.6
20190618181518 89 106 0.9 2.6 0.00 0.00 0.00 53 1013.7
20190618180520 87 65 1.7 1.7 0.00 0.00 0.00 56 1013.7
20190618175523 87 92 0.9 1.7 0.00 0.00 0.00 54 1013.9
20190618174525 86 97 0.0 1.7 0.00 0.00 0.00 59 1013.8
20190618173527 87 220 0.9 1.7 0.00 0.00 0.00 57 1013.7
20190618172530 87 80 0.0 1.7 0.00 0.00 0.00 56 1013.5
20190618171527 87 116 0.9 1.7 0.00 0.00 0.00 57 1013.6
20190618170529 87 100 1.7 4.3 0.00 0.00 0.00 60 1013.2
20190618165533 86 336 0.9 2.6 0.00 0.00 0.00 62 1013.0
20190618164516 85 56 2.6 4.3 0.00 0.00 0.00 62 1012.8
20190618163519 85 40 4.3 6.1 0.00 0.00 0.00 63 1012.8
20190618162521 85 48 0.9 2.6 0.00 0.00 0.00 64 1013.1
20190618161518 84 37 1.7 3.5 0.00 0.00 0.00 66 1012.6
20190618160521 82 105 1.7 3.5 0.00 0.00 0.00 68 1012.0
20190618155518 81 81 1.7 3.5 0.00 0.00 0.00 71 1012.3
20190618154520 80 159 2.6 4.3 0.00 0.00 0.00 73 1012.4
20190618153523 79 198 2.6 4.3 0.00 0.00 0.00 75 1012.6
20190618152526 78 189 3.5 5.2 0.00 0.00 0.00 75 1012.8
20190618151530 78 206 3.5 7.0 0.00 0.00 0.00 75 1012.9
20190618150531 78 175 2.6 5.2 0.00 0.00 0.00 77 1013.1
20190618145516 78 125 3.5 7.8 0.00 0.00 0.00 79 1013.2
20190618144518 75 221 2.6 5.2 0.00 0.00 0.00 83 1013.5
20190618143521 74 140 1.7 5.2 0.00 0.00 0.00 85 1013.8
20190618142523 74 159 2.6 5.2 0.00 0.00 0.00 85 1014.0
20190618141526 74 292 0.0 0.9 0.00 0.00 0.00 85 1014.2
20190618140529 74 197 0.9 2.6 0.00 0.00 0.00 83 1014.3
20190618135531 76 301 0.0 1.7 0.00 0.00 0.00 81 1014.7
20190618134516 76 247 0.0 1.7 0.00 0.00 0.00 80 1015.0
20190618133525 77 255 0.0 1.7 0.00 0.00 0.00 79 1015.1
20190618132521 78 258 0.0 1.7 0.00 0.00 0.00 78 1015.0
20190618131517 78 328 0.0 0.9 0.00 0.00 0.00 77 1015.1
20190618130519 78 0.0 0.0 0.00 0.00 0.00 78 1015.1
20190618125517 78 0.0 0.0 0.00 0.00 0.00 77 1015.1
20190618124520 78 0.0 0.0 0.00 0.00 0.00 77 1015.1
20190618123522 78 0.0 0.0 0.00 0.00 0.00 77 1015.1
20190618122520 77 0.0 0.9 0.00 0.00 0.00 79 1015.4
20190618121522 75 270 0.0 1.7 0.00 0.00 0.00 84 1015.4
20190618120520 73 0.0 0.0 0.00 0.00 0.00 88 1015.1
20190618115523 71 0.0 0.0 0.00 0.00 0.00 90 1015.1
20190618114519 70 270 0.0 0.9 0.00 0.00 0.00 92 1014.9
20190618113522 69 0.0 0.0 0.00 0.00 0.00 92 1014.7
20190618112524 69 0.0 0.0 0.00 0.00 0.00 91 1014.5
20190618111526 69 0.0 0.0 0.00 0.00 0.00 91 1014.4
20190618110529 69 0.0 0.0 0.00 0.00 0.00 91 1014.3
20190618105531 69 0.0 0.0 0.00 0.00 0.00 91 1014.3
20190618104516 69 0.0 0.0 0.00 0.00 0.00 91 1014.4